Time;durP1;ratioP1;P1;durP2;ratioP2;P2;SDS_P1;SDS_P2;PMS_P1;PMS_P2;Temp;Humidity;BMP_temperature;BMP_pressure;BME280_temperature;BME280_humidity;BME280_pressure;Samples;Min_cycle;Max_cycle;Signal;HPM_P1;HPM_P2
2023/08/07 00:01:41;;;;;;;;;0.00;0.00;;;;;26.64;40.97;101863.84;5031984;28;45471;-72
2023/08/07 00:04:06;;;;;;;;;0.67;0.33;;;;;26.67;40.86;101876.00;5032376;28;52419;-72
2023/08/07 00:06:31;;;;;;;;;0.00;0.00;;;;;26.47;40.33;101837.38;5033794;28;45378;-72
2023/08/07 00:08:57;;;;;;;;;0.67;0.67;;;;;26.63;40.92;101865.69;5034960;27;45590;-72
2023/08/07 00:11:22;;;;;;;;;0.33;0.33;;;;;26.68;40.41;101874.97;5035078;28;45353;-72
2023/08/07 00:13:47;;;;;;;;;0.33;0.33;;;;;26.68;41.01;101874.97;5034954;28;46234;-71
2023/08/07 00:16:13;;;;;;;;;0.00;0.00;;;;;26.68;40.89;101877.63;5034743;28;47590;-72
2023/08/07 00:18:38;;;;;;;;;1.00;1.00;;;;;26.68;40.35;101878.47;5034591;28;45366;-71
2023/08/07 00:21:03;;;;;;;;;1.00;1.00;;;;;26.68;40.50;101880.31;5034888;28;45351;-71
2023/08/07 00:23:29;;;;;;;;;0.33;0.00;;;;;26.67;40.77;101879.50;5034536;28;48815;-72
2023/08/07 00:25:54;;;;;;;;;1.00;1.00;;;;;26.68;40.79;101873.13;5034726;28;45400;-72
2023/08/07 00:28:19;;;;;;;;;2.00;0.00;;;;;26.68;40.33;101870.47;5034723;28;45375;-72
2023/08/07 00:30:45;;;;;;;;;0.00;0.00;;;;;26.68;40.98;101878.47;5034827;28;45462;-72
2023/08/07 00:33:11;;;;;;;;;1.67;0.00;;;;;26.69;41.03;101881.97;5034245;28;46126;-72
2023/08/07 00:35:36;;;;;;;;;0.00;0.00;;;;;26.61;40.62;101864.22;5034577;28;45325;-72
2023/08/07 00:38:02;;;;;;;;;0.00;0.00;;;;;26.68;40.56;101866.97;5034717;28;45445;-72
2023/08/07 00:40:27;;;;;;;;;0.67;0.67;;;;;26.69;40.98;101868.63;5034666;28;45211;-71
2023/08/07 00:42:52;;;;;;;;;0.00;0.00;;;;;26.69;40.33;101868.63;5034486;28;46057;-72
2023/08/07 00:45:18;;;;;;;;;1.00;0.00;;;;;26.65;40.76;101859.34;5034312;28;50640;-72
2023/08/07 00:47:44;;;;;;;;;0.00;0.00;;;;;26.67;40.96;101871.50;5034283;28;45290;-71
2023/08/07 00:50:10;;;;;;;;;0.00;0.00;;;;;26.68;40.57;101872.31;5034671;28;45359;-72
2023/08/07 00:52:36;;;;;;;;;1.00;0.00;;;;;26.68;40.86;101873.13;5034154;28;46232;-72
2023/08/07 00:55:01;;;;;;;;;0.67;0.67;;;;;26.67;40.54;101868.81;5034369;28;45333;-72
2023/08/07 00:57:27;;;;;;;;;0.00;0.00;;;;;26.67;40.85;101862.66;5034637;28;45326;-72
2023/08/07 00:59:53;;;;;;;;;0.00;0.00;;;;;26.62;40.10;101856.03;5034573;28;45304;-72
2023/08/07 01:02:18;;;;;;;;;1.00;0.00;;;;;26.66;40.58;101863.66;5033859;28;46127;-72
2023/08/07 01:04:44;;;;;;;;;0.00;0.00;;;;;26.66;40.25;101853.81;5034128;28;45394;-72
2023/08/07 01:07:09;;;;;;;;;0.00;0.00;;;;;26.65;40.51;101862.03;5034589;27;45429;-72
2023/08/07 01:09:35;;;;;;;;;0.00;0.00;;;;;26.57;40.85;101849.63;5034176;28;45475;-72
2023/08/07 01:12:14;;;;;;;;;0.00;0.00;;;;;26.60;40.79;101858.06;5034103;28;45588;-71
2023/08/07 01:14:52;;;;;;;;;1.00;0.00;;;;;26.65;40.59;101862.81;5033754;28;45407;-71
2023/08/07 01:17:21;;;;;;;;;0.00;0.00;;;;;26.64;40.34;101866.53;5033649;28;45365;-72
2023/08/07 01:19:47;;;;;;;;;0.00;0.00;;;;;26.52;40.86;101848.31;5034182;28;45216;-72
2023/08/07 01:22:14;;;;;;;;;0.00;0.00;;;;;26.65;41.03;101870.03;5034027;28;45443;-72
2023/08/07 01:24:45;;;;;;;;;0.00;0.00;;;;;26.63;40.33;101865.69;5034040;28;45345;-72
2023/08/07 01:27:19;;;;;;;;;0.00;0.00;;;;;26.62;40.84;101861.34;5034225;28;45314;-71
2023/08/07 01:30:06;;;;;;;;;1.33;0.33;;;;;26.63;40.76;101865.69;5033740;28;45476;-72
2023/08/07 01:33:10;;;;;;;;;0.00;0.00;;;;;26.65;40.60;101862.03;5033814;28;45503;-72
2023/08/07 01:35:41;;;;;;;;;0.00;0.00;;;;;26.64;40.46;101853.19;5033817;28;45364;-72
2023/08/07 01:38:07;;;;;;;;;0.00;0.00;;;;;26.57;40.32;101846.94;5033995;28;45393;-72
2023/08/07 01:40:35;;;;;;;;;0.00;0.00;;;;;26.65;40.51;101859.34;5034107;27;45477;-72
2023/08/07 01:43:01;;;;;;;;;0.00;0.00;;;;;26.63;40.86;101860.34;5033658;28;47254;-72
2023/08/07 01:45:28;;;;;;;;;0.00;0.00;;;;;26.64;40.31;101866.53;5033324;28;45275;-71
2023/08/07 01:47:54;;;;;;;;;0.00;0.00;;;;;26.61;40.48;101859.72;5034026;28;45311;-71
2023/08/07 01:50:21;;;;;;;;;0.00;0.00;;;;;26.55;40.48;101852.44;5033832;28;45307;-71
2023/08/07 01:52:47;;;;;;;;;1.00;1.00;;;;;26.61;40.93;101856.22;5033473;28;46160;-71
2023/08/07 01:55:17;;;;;;;;;0.00;0.00;;;;;26.61;40.48;101853.56;5033619;28;45455;-72
2023/08/07 01:57:43;;;;;;;;;1.00;1.00;;;;;26.55;40.95;101852.44;5033915;28;45357;-72
2023/08/07 02:00:09;;;;;;;;;0.67;0.67;;;;;26.57;40.42;101853.09;5033445;28;45361;-72
2023/08/07 02:02:35;;;;;;;;;1.00;0.00;;;;;26.59;40.65;101856.41;5033433;28;47979;-72
2023/08/07 02:05:01;;;;;;;;;0.67;0.67;;;;;26.59;40.77;101851.09;5033346;28;45380;-72
2023/08/07 02:07:26;;;;;;;;;0.33;0.33;;;;;26.52;40.94;101845.66;5033515;28;45408;-71
2023/08/07 02:09:52;;;;;;;;;0.67;0.00;;;;;26.60;40.91;101854.56;5033388;27;45283;-72
2023/08/07 02:12:17;;;;;;;;;0.33;0.33;;;;;26.55;40.55;101841.78;5033258;28;47143;-71
2023/08/07 02:14:42;;;;;;;;;1.00;0.00;;;;;26.54;40.58;101844.66;5033228;28;45375;-72
2023/08/07 02:17:08;;;;;;;;;0.00;0.00;;;;;26.59;40.43;101856.41;5033619;28;45401;-71
2023/08/07 02:19:33;;;;;;;;;0.00;0.00;;;;;26.56;40.42;101851.44;5033328;28;45296;-72
2023/08/07 02:21:59;;;;;;;;;2.00;1.00;;;;;26.57;41.13;101854.94;5033381;28;45369;-72
2023/08/07 02:24:24;;;;;;;;;2.00;0.00;;;;;26.52;40.64;101844.81;5033201;28;45334;-71
2023/08/07 02:26:49;;;;;;;;;1.00;1.00;;;;;26.57;40.90;101853.09;5033046;28;45455;-71
2023/08/07 02:29:15;;;;;;;;;1.00;0.00;;;;;26.61;40.98;101861.56;5032784;28;48501;-72
2023/08/07 02:31:40;;;;;;;;;0.00;0.00;;;;;26.61;40.87;101859.72;5033210;28;46191;-71
2023/08/07 02:34:05;;;;;;;;;1.67;0.00;;;;;26.61;40.85;101859.72;5033175;28;45266;-72
2023/08/07 02:36:30;;;;;;;;;0.00;0.00;;;;;26.61;40.95;101862.38;5033439;28;45244;-72
2023/08/07 02:38:56;;;;;;;;;0.33;0.33;;;;;26.59;40.48;101855.59;5032970;28;49718;-72
2023/08/07 02:41:21;;;;;;;;;0.00;0.00;;;;;26.62;40.68;101865.91;5033032;28;45355;-71
2023/08/07 02:43:47;;;;;;;;;0.00;0.00;;;;;26.61;40.95;101869.56;5032875;28;45537;-71
2023/08/07 02:46:12;;;;;;;;;1.67;0.00;;;;;26.61;40.78;101865.06;5033003;28;45528;-71
2023/08/07 02:48:39;;;;;;;;;0.67;0.33;;;;;26.61;40.99;101858.88;5033088;28;45468;-72
2023/08/07 02:51:04;;;;;;;;;0.33;0.00;;;;;26.57;41.01;101855.75;5032992;28;45348;-71
2023/08/07 02:53:29;;;;;;;;;1.00;1.00;;;;;26.60;40.39;101863.41;5032636;28;45451;-71
2023/08/07 02:55:55;;;;;;;;;0.00;0.00;;;;;26.46;41.20;101845.56;5033256;27;45294;-72
2023/08/07 02:58:20;;;;;;;;;1.00;1.00;;;;;26.50;41.16;101853.00;5032575;28;45413;-72
2023/08/07 03:00:45;;;;;;;;;0.00;0.00;;;;;26.61;40.90;101864.22;5032695;28;47300;-71
2023/08/07 03:03:11;;;;;;;;;1.00;1.00;;;;;26.61;40.81;101862.38;5032691;28;45382;-72
2023/08/07 03:05:36;;;;;;;;;2.00;1.00;;;;;26.61;40.98;101869.56;5032650;28;45799;-72
2023/08/07 03:08:02;;;;;;;;;0.00;0.00;;;;;26.54;40.56;101855.31;5033063;27;45631;-71
2023/08/07 03:10:27;;;;;;;;;1.00;1.00;;;;;26.60;40.85;101862.56;5032506;27;45360;-71
2023/08/07 03:12:52;;;;;;;;;1.00;1.00;;;;;26.55;41.09;101859.63;5032289;28;45456;-71
2023/08/07 03:15:18;;;;;;;;;1.00;1.00;;;;;26.60;40.57;101874.06;5032792;28;45714;-72
2023/08/07 03:17:43;;;;;;;;;1.00;1.00;;;;;26.52;40.72;101860.81;5032252;27;45469;-71
2023/08/07 03:20:09;;;;;;;;;0.67;0.00;;;;;26.61;41.04;101874.91;5032470;28;46164;-72
2023/08/07 03:22:35;;;;;;;;;0.00;0.00;;;;;26.58;40.43;101870.75;5032542;28;45394;-72
2023/08/07 03:25:00;;;;;;;;;0.00;0.00;;;;;26.61;40.76;101878.41;5031164;28;45486;-72
2023/08/07 03:27:25;;;;;;;;;2.33;0.00;;;;;26.53;40.59;101870.50;5032137;28;45477;-72
2023/08/07 03:29:51;;;;;;;;;0.00;0.00;;;;;26.59;40.43;101883.09;5032436;28;45324;-72
2023/08/07 03:32:18;;;;;;;;;1.00;1.00;;;;;26.51;40.39;101860.03;5032274;28;45375;-72
2023/08/07 03:34:43;;;;;;;;;0.00;0.00;;;;;26.60;40.82;101875.91;5032558;28;45458;-72
2023/08/07 03:37:08;;;;;;;;;0.00;0.00;;;;;26.60;40.39;101873.22;5032245;28;45448;-72
2023/08/07 03:39:33;;;;;;;;;0.00;0.00;;;;;26.32;40.80;101834.69;5034074;28;46000;-72
2023/08/07 03:41:59;;;;;;;;;1.67;0.33;;;;;26.51;40.79;101856.53;5035037;28;45389;-72
2023/08/07 03:44:24;;;;;;;;;0.00;0.00;;;;;26.58;40.48;101861.94;5035285;28;45329;-72
2023/08/07 03:46:51;;;;;;;;;0.00;0.00;;;;;26.52;40.81;101858.16;5035487;27;45393;-72
2023/08/07 03:49:16;;;;;;;;;2.33;1.00;;;;;26.55;40.92;101867.63;5035113;28;47011;-72
2023/08/07 03:51:42;;;;;;;;;0.33;0.33;;;;;26.57;41.05;101876.31;5034954;28;45410;-72
2023/08/07 03:54:07;;;;;;;;;0.00;0.00;;;;;26.57;40.95;101879.78;5035329;28;45416;-72
2023/08/07 03:56:36;;;;;;;;;0.67;0.00;;;;;26.52;40.96;101864.31;5034881;28;45419;-72
2023/08/07 03:59:02;;;;;;;;;0.00;0.00;;;;;26.45;40.77;101857.25;5035188;28;46978;-72
2023/08/07 04:01:27;;;;;;;;;0.00;0.00;;;;;26.30;40.45;101836.72;5035063;28;45309;-72
2023/08/07 04:03:52;;;;;;;;;0.00;0.00;;;;;26.57;40.55;101876.31;5035235;28;45255;-72
2023/08/07 04:06:18;;;;;;;;;0.00;0.00;;;;;26.55;41.06;101883.63;5035082;28;45389;-72
2023/08/07 04:08:45;;;;;;;;;1.00;1.00;;;;;26.57;40.56;101886.97;5034631;27;45504;-71
2023/08/07 04:11:10;;;;;;;;;1.67;0.00;;;;;26.40;40.81;101861.28;5034990;28;45417;-72
2023/08/07 04:13:36;;;;;;;;;3.00;0.00;;;;;26.52;40.88;101882.16;5034927;28;45698;-72
2023/08/07 04:16:04;;;;;;;;;0.00;0.00;;;;;26.58;40.78;101888.63;5034968;28;45334;-72
2023/08/07 04:18:29;;;;;;;;;0.00;0.00;;;;;26.52;40.79;101891.00;5034617;27;45473;-72
2023/08/07 04:20:56;;;;;;;;;1.00;0.00;;;;;26.58;40.75;101891.28;5016853;27;45422;-72
2023/08/07 04:23:21;;;;;;;;;1.00;1.00;;;;;26.58;40.50;101889.44;5034522;28;45344;-73
2023/08/07 04:25:48;;;;;;;;;1.00;1.00;;;;;26.57;41.02;101887.78;5033545;28;45558;-72
2023/08/07 04:28:13;;;;;;;;;0.33;0.33;;;;;26.54;40.64;101885.50;5034593;28;46014;-72
2023/08/07 04:30:40;;;;;;;;;1.00;1.00;;;;;26.59;40.68;101888.44;5034708;28;45448;-72
2023/08/07 04:33:05;;;;;;;;;0.00;0.00;;;;;26.55;40.80;101884.47;5034910;28;45468;-73
2023/08/07 04:35:31;;;;;;;;;1.00;1.00;;;;;26.58;40.82;101889.44;5034577;28;45468;-72
2023/08/07 04:37:56;;;;;;;;;0.33;0.33;;;;;26.56;40.99;101882.63;5034283;28;45356;-72
2023/08/07 04:40:22;;;;;;;;;0.33;0.33;;;;;26.59;40.97;101887.59;5034467;28;45472;-72
2023/08/07 04:42:49;;;;;;;;;0.00;0.00;;;;;26.58;40.65;101889.44;5034710;28;45570;-72
2023/08/07 04:45:14;;;;;;;;;0.00;0.00;;;;;26.59;40.93;101882.28;5034576;28;45424;-72
2023/08/07 04:47:39;;;;;;;;;2.67;0.67;;;;;26.58;40.90;101881.44;5034325;28;45417;-72
2023/08/07 04:50:05;;;;;;;;;0.00;0.00;;;;;26.58;40.92;101892.13;5034434;28;45503;-72
2023/08/07 04:52:30;;;;;;;;;1.00;1.00;;;;;26.52;40.98;101879.50;5034072;28;45363;-72
2023/08/07 04:54:56;;;;;;;;;2.00;1.00;;;;;26.59;40.77;101890.28;5034542;27;45508;-72
2023/08/07 04:57:21;;;;;;;;;1.00;1.00;;;;;26.56;40.76;101878.13;5034356;28;45919;-72
2023/08/07 04:59:46;;;;;;;;;0.00;0.00;;;;;26.59;40.38;101887.59;5034570;28;45340;-72
2023/08/07 05:02:12;;;;;;;;;0.00;0.00;;;;;26.57;41.08;101882.44;5034409;28;45386;-71
2023/08/07 05:04:37;;;;;;;;;0.00;0.00;;;;;26.48;41.14;101875.56;5034360;28;45269;-71
2023/08/07 05:07:03;;;;;;;;;0.33;0.33;;;;;26.51;40.64;101884.03;5033809;28;46307;-72
2023/08/07 05:09:28;;;;;;;;;0.00;0.00;;;;;26.63;40.45;101904.91;5033956;27;45371;-72
2023/08/07 05:11:54;;;;;;;;;0.00;0.00;;;;;26.63;40.34;101905.72;5034272;28;45269;-72
2023/08/07 05:14:19;;;;;;;;;1.00;1.00;;;;;26.67;40.46;101910.69;5034247;28;45217;-72
2023/08/07 05:16:44;;;;;;;;;0.00;0.00;;;;;26.67;40.49;101905.38;5016033;28;46726;-72
2023/08/07 05:19:10;;;;;;;;;0.00;0.00;;;;;26.70;40.95;101907.66;5034220;28;45318;-73
2023/08/07 05:21:35;;;;;;;;;0.00;0.00;;;;;26.68;40.89;101897.16;5034021;27;46102;-72
2023/08/07 05:24:00;;;;;;;;;0.00;0.00;;;;;26.74;41.05;101912.44;5034144;28;45488;-72
2023/08/07 05:26:26;;;;;;;;;0.33;0.00;;;;;26.71;40.25;101888.78;5033802;28;47045;-72
2023/08/07 05:28:51;;;;;;;;;0.67;0.33;;;;;26.65;40.24;101878.84;5033857;28;45434;-73
2023/08/07 05:31:16;;;;;;;;;0.00;0.00;;;;;26.87;40.46;101918.13;5034079;28;45421;-72
2023/08/07 05:33:42;;;;;;;;;0.00;0.00;;;;;26.91;40.09;101911.38;5033899;28;45612;-72
2023/08/07 05:36:07;;;;;;;;;0.00;0.00;;;;;26.95;40.67;101910.84;5033672;27;46982;-72
2023/08/07 05:38:32;;;;;;;;;1.00;1.00;;;;;26.95;40.63;101899.31;5068557;27;45316;-72
2023/08/07 05:40:58;;;;;;;;;0.00;0.00;;;;;27.05;40.32;101915.88;5033973;28;45375;-72
2023/08/07 05:43:23;;;;;;;;;0.00;0.00;;;;;27.17;39.82;101908.19;5033950;28;45368;-72
2023/08/07 05:45:49;;;;;;;;;2.00;0.00;;;;;27.33;39.57;101919.66;5033617;28;47330;-72
2023/08/07 05:48:16;;;;;;;;;0.33;0.33;;;;;27.39;39.74;101920.75;5033679;28;45345;-72
2023/08/07 05:50:41;;;;;;;;;0.00;0.00;;;;;27.52;39.99;101915.53;5015662;28;45237;-72
2023/08/07 05:53:07;;;;;;;;;0.00;0.00;;;;;27.54;39.63;101899.28;5033540;28;45521;-72
2023/08/07 05:55:32;;;;;;;;;0.00;0.00;;;;;27.82;39.65;101921.75;5016273;27;46107;-71
2023/08/07 05:57:58;;;;;;;;;1.00;1.00;;;;;27.97;38.86;101927.03;5033589;28;45382;-72
2023/08/07 06:00:23;;;;;;;;;0.00;0.00;;;;;28.10;38.56;101917.44;5049313;28;45157;-72
2023/08/07 06:02:48;;;;;;;;;1.00;1.00;;;;;28.21;39.05;101911.50;5033019;28;45263;-72
2023/08/07 06:05:14;;;;;;;;;1.33;0.00;;;;;28.44;38.73;101915.78;5032998;28;47526;-73
2023/08/07 06:07:40;;;;;;;;;0.00;0.00;;;;;28.66;37.96;101922.88;5033589;28;45351;-72
2023/08/07 06:10:06;;;;;;;;;0.00;0.00;;;;;28.70;38.03;101908.09;5033515;27;45501;-71
2023/08/07 06:12:32;;;;;;;;;0.00;0.00;;;;;28.83;37.93;101924.16;5033467;28;45462;-72
2023/08/07 06:14:57;;;;;;;;;0.00;0.00;;;;;28.90;37.51;101918.84;5032174;27;47330;-72
2023/08/07 06:17:22;;;;;;;;;1.67;1.67;;;;;28.88;37.53;101901.34;5033356;27;45385;-72
2023/08/07 06:19:48;;;;;;;;;0.00;0.00;;;;;29.00;37.85;101923.81;5033062;27;45255;-72
2023/08/07 06:22:13;;;;;;;;;0.67;0.00;;;;;28.99;37.64;101922.16;5033428;28;45504;-72
2023/08/07 06:24:38;;;;;;;;;0.33;0.00;;;;;29.18;37.39;101931.31;5033146;28;46356;-72
2023/08/07 06:27:04;;;;;;;;;0.00;0.00;;;;;29.21;37.06;101931.94;5033317;28;45305;-72
2023/08/07 06:29:29;;;;;;;;;0.33;0.33;;;;;29.18;37.09;101934.00;5033391;28;45350;-72
2023/08/07 06:31:55;;;;;;;;;0.00;0.00;;;;;28.85;36.85;101898.03;5033188;28;47567;-73
2023/08/07 06:34:20;;;;;;;;;1.00;0.00;;;;;29.05;37.31;101937.44;5032707;28;47077;-72
2023/08/07 06:36:45;;;;;;;;;0.00;0.00;;;;;29.05;37.11;101947.31;5033207;28;45264;-72
2023/08/07 06:39:11;;;;;;;;;0.00;0.00;;;;;28.94;37.48;101921.94;5033367;28;45336;-72
2023/08/07 06:41:37;;;;;;;;;0.00;0.00;;;;;29.00;37.05;101921.13;5033155;28;45479;-72
2023/08/07 06:44:03;;;;;;;;;0.33;0.33;;;;;29.23;37.15;101957.50;5032958;28;46961;-72
2023/08/07 06:46:28;;;;;;;;;0.00;0.00;;;;;29.28;36.97;101936.28;5033069;28;45217;-71
2023/08/07 06:48:54;;;;;;;;;0.00;0.00;;;;;29.46;36.62;101940.19;5032955;28;45768;-71
2023/08/07 06:51:19;;;;;;;;;2.00;1.00;;;;;29.58;36.61;101947.66;5033084;27;45291;-72
2023/08/07 06:53:44;;;;;;;;;1.33;0.00;;;;;29.62;36.54;101955.06;5032647;28;47695;-72
2023/08/07 06:56:10;;;;;;;;;0.00;0.00;;;;;29.62;36.46;101949.72;5032927;28;45459;-72
2023/08/07 06:58:35;;;;;;;;;1.00;1.00;;;;;29.49;36.07;101939.78;5033171;28;45295;-70
2023/08/07 07:01:00;;;;;;;;;0.00;0.00;;;;;29.51;36.32;101950.31;5033098;28;45285;-72
2023/08/07 07:03:26;;;;;;;;;0.00;0.00;;;;;29.38;36.62;101946.59;5032239;28;46320;-72
2023/08/07 07:05:51;;;;;;;;;0.00;0.00;;;;;29.36;36.68;101947.81;5032686;28;45323;-72
2023/08/07 07:08:16;;;;;;;;;0.33;0.00;;;;;29.22;36.61;101934.44;5014802;27;45288;-72
2023/08/07 07:10:42;;;;;;;;;0.00;0.00;;;;;29.21;36.53;101939.97;5032772;28;45480;-72
2023/08/07 07:13:09;;;;;;;;;0.33;0.33;;;;;29.14;36.88;101945.31;5032648;28;46283;-72
2023/08/07 07:15:35;;;;;;;;;0.00;0.00;;;;;28.94;36.87;101925.44;5035660;28;45505;-72
2023/08/07 07:18:00;;;;;;;;;0.00;0.00;;;;;28.56;36.71;101873.22;5035073;28;45359;-72
2023/08/07 07:20:26;;;;;;;;;0.00;0.00;;;;;28.74;36.72;101917.34;5035630;28;45378;-72
2023/08/07 07:22:52;;;;;;;;;0.00;0.00;;;;;28.90;36.80;101948.31;5035318;28;46738;-72
2023/08/07 07:25:17;;;;;;;;;0.00;0.00;;;;;28.84;37.47;101955.28;5035386;28;45590;-71
2023/08/07 07:27:43;;;;;;;;;0.00;0.00;;;;;28.76;37.45;101944.75;5035722;28;45395;-72
2023/08/07 07:30:09;;;;;;;;;0.00;0.00;;;;;28.78;37.09;101945.38;5035761;28;45462;-73
2023/08/07 07:32:34;;;;;;;;;0.00;0.00;;;;;28.73;37.52;101955.84;5035129;28;47136;-72
2023/08/07 07:35:00;;;;;;;;;1.00;1.00;;;;;28.66;37.57;101955.00;5035298;28;45312;-72
2023/08/07 07:37:25;;;;;;;;;0.00;0.00;;;;;28.66;37.69;101963.88;5035603;28;45359;-72
2023/08/07 07:39:51;;;;;;;;;0.00;0.00;;;;;28.62;37.64;101962.63;5035569;28;45419;-72
2023/08/07 07:42:16;;;;;;;;;0.33;0.33;;;;;28.49;37.34;101955.34;5035325;28;46542;-72
2023/08/07 07:44:41;;;;;;;;;1.00;0.00;;;;;28.52;38.08;101963.00;5035168;28;45393;-72
2023/08/07 07:47:08;;;;;;;;;0.67;0.67;;;;;28.32;37.75;101942.25;5035073;28;45387;-72
2023/08/07 07:49:33;;;;;;;;;0.00;0.00;;;;;28.40;37.92;101962.66;5035315;28;45477;-72
2023/08/07 07:51:59;;;;;;;;;0.00;0.00;;;;;28.14;37.76;101924.84;5035209;28;46158;-72
2023/08/07 07:54:25;;;;;;;;;1.00;1.00;;;;;28.27;38.28;101958.06;5035056;28;45897;-72
2023/08/07 07:56:50;;;;;;;;;0.00;0.00;;;;;28.29;38.32;101966.72;5035339;28;45332;-72
2023/08/07 07:59:16;;;;;;;;;0.00;0.00;;;;;28.26;38.04;101959.91;5035374;28;45287;-72
2023/08/07 08:01:41;;;;;;;;;1.33;0.33;;;;;28.20;38.28;101967.91;5034573;28;46210;-72
2023/08/07 08:04:07;;;;;;;;;1.00;1.00;;;;;28.21;38.77;101980.28;5104709;27;45308;-72
2023/08/07 08:06:32;;;;;;;;;0.67;0.67;;;;;28.04;38.78;101951.97;5035017;28;45267;-72
2023/08/07 08:08:59;;;;;;;;;0.33;0.33;;;;;28.13;38.86;101965.19;5035037;27;45456;-72
2023/08/07 08:11:24;;;;;;;;;0.00;0.00;;;;;28.17;38.57;101974.47;5034890;28;45335;-72
2023/08/07 08:13:49;;;;;;;;;0.67;0.67;;;;;28.17;38.21;101974.47;5034745;28;45415;-72
2023/08/07 08:16:15;;;;;;;;;1.00;1.00;;;;;28.15;38.52;101977.34;5034815;27;45325;-71
2023/08/07 08:18:41;;;;;;;;;0.00;0.00;;;;;28.10;38.86;101966.41;5034689;27;45498;-72
2023/08/07 08:21:06;;;;;;;;;0.00;0.00;;;;;28.09;38.38;101972.78;5034757;28;46282;-72
2023/08/07 08:23:32;;;;;;;;;0.00;0.00;;;;;28.11;38.70;101972.56;5034739;28;45343;-72
2023/08/07 08:25:57;;;;;;;;;2.00;1.00;;;;;28.05;38.60;101966.97;5034360;28;45354;-72
2023/08/07 08:28:22;;;;;;;;;2.00;0.67;;;;;28.06;38.81;101971.31;5034819;28;45322;-72
2023/08/07 08:30:48;;;;;;;;;0.00;0.00;;;;;28.10;38.62;101968.25;5034184;28;46034;-73
2023/08/07 08:33:14;;;;;;;;;0.00;0.00;;;;;28.05;38.52;101966.16;5034709;27;45405;-73
2023/08/07 08:35:40;;;;;;;;;0.00;0.00;;;;;28.07;38.54;101964.94;5034951;28;45427;-72
2023/08/07 08:38:06;;;;;;;;;0.00;0.00;;;;;28.05;38.95;101961.63;5034726;28;45449;-72
2023/08/07 08:40:31;;;;;;;;;0.00;0.00;;;;;27.90;38.58;101952.84;5034562;28;46413;-71
2023/08/07 08:43:00;;;;;;;;;0.00;0.00;;;;;27.95;38.83;101971.81;5034428;28;45342;-72
2023/08/07 08:45:27;;;;;;;;;2.00;0.00;;;;;27.83;38.98;101950.16;5034343;28;45455;-72
2023/08/07 08:47:58;;;;;;;;;3.00;1.00;;;;;27.94;38.79;101967.53;5034676;28;45396;-71
2023/08/07 08:50:24;;;;;;;;;0.33;0.33;;;;;27.95;38.41;101974.50;5034001;28;47150;-71
2023/08/07 08:52:53;;;;;;;;;0.00;0.00;;;;;27.97;38.55;101972.47;5034207;28;45342;-71
2023/08/07 08:55:20;;;;;;;;;1.00;1.00;;;;;27.95;38.34;101974.50;5034508;28;45373;-72
2023/08/07 08:57:47;;;;;;;;;0.00;0.00;;;;;27.94;39.07;101978.22;5034551;28;45390;-72
2023/08/07 09:00:25;;;;;;;;;0.33;0.33;;;;;27.20;38.89;101871.44;5032623;28;46327;-72
2023/08/07 09:02:51;;;;;;;;;1.00;1.00;;;;;27.65;39.20;101945.22;5034155;28;45521;-72
2023/08/07 09:05:19;;;;;;;;;2.00;0.00;;;;;27.81;38.71;101976.25;5034305;28;45437;-72
2023/08/07 09:07:46;;;;;;;;;1.00;1.00;;;;;27.81;38.98;101976.25;5034312;28;45380;-72
2023/08/07 09:10:13;;;;;;;;;0.33;0.33;;;;;27.87;38.91;101980.81;5034058;27;45451;-72
2023/08/07 09:12:41;;;;;;;;;0.33;0.33;;;;;27.83;39.26;101988.41;5034192;28;45335;-72
2023/08/07 09:15:08;;;;;;;;;0.00;0.00;;;;;27.76;39.36;101981.31;5033978;28;45746;-72
2023/08/07 09:17:39;;;;;;;;;0.00;0.00;;;;;27.67;38.82;101959.22;5034125;27;45338;-72
2023/08/07 09:20:08;;;;;;;;;1.00;1.00;;;;;27.75;39.14;101977.81;5033883;28;47134;-72
2023/08/07 09:22:33;;;;;;;;;0.00;0.00;;;;;27.81;39.49;101986.94;5034170;27;45533;-72
2023/08/07 09:25:00;;;;;;;;;0.00;0.00;;;;;27.84;39.04;101989.25;5034145;27;45419;-72
2023/08/07 09:27:25;;;;;;;;;0.00;0.00;;;;;27.84;39.53;101984.72;5034246;28;45368;-72
2023/08/07 09:29:54;;;;;;;;;0.00;0.00;;;;;27.81;39.01;101981.59;5033669;28;47056;-72
2023/08/07 09:32:22;;;;;;;;;0.33;0.33;;;;;27.86;39.28;101987.19;5034111;28;45384;-72
2023/08/07 09:34:49;;;;;;;;;0.00;0.00;;;;;27.87;38.85;101982.69;5034148;28;45464;-72
2023/08/07 09:37:14;;;;;;;;;0.00;0.00;;;;;27.83;39.46;101974.22;5032868;28;45457;-71
2023/08/07 09:39:40;;;;;;;;;1.00;1.00;;;;;27.89;39.20;101983.31;5033845;28;46030;-72
2023/08/07 09:42:15;;;;;;;;;0.00;0.00;;;;;27.89;38.86;101973.44;5034102;28;45398;-72
2023/08/07 09:44:41;;;;;;;;;1.67;1.67;;;;;27.87;38.93;101978.13;5033966;28;45491;-72
2023/08/07 09:47:13;;;;;;;;;1.00;1.00;;;;;27.87;39.22;101980.81;5033984;28;45312;-72
2023/08/07 09:49:39;;;;;;;;;0.00;0.00;;;;;27.84;39.53;101976.69;5033632;28;45382;-72
2023/08/07 09:52:11;;;;;;;;;1.33;1.33;;;;;27.63;39.07;101951.63;5033372;28;45259;-72
2023/08/07 09:54:37;;;;;;;;;0.33;0.33;;;;;27.47;39.49;101930.47;5033961;28;45414;-72
2023/08/07 09:57:03;;;;;;;;;1.00;1.00;;;;;27.80;39.50;101987.97;5033651;28;45401;-72
2023/08/07 09:59:29;;;;;;;;;0.00;0.00;;;;;27.38;39.25;101925.25;5033634;28;45450;-72
2023/08/07 10:01:59;;;;;;;;;1.00;1.00;;;;;27.75;38.95;101983.16;5033525;27;45381;-71
2023/08/07 10:04:26;;;;;;;;;1.00;1.00;;;;;27.74;39.50;101993.03;5033850;28;45330;-72
2023/08/07 10:06:51;;;;;;;;;0.67;0.67;;;;;27.70;39.40;101997.13;5015600;28;45493;-72
2023/08/07 10:09:16;;;;;;;;;1.00;1.00;;;;;27.72;38.95;101991.56;5033235;27;47056;-71
2023/08/07 10:11:43;;;;;;;;;0.33;0.33;;;;;27.68;39.41;101995.66;5033327;27;45292;-71
2023/08/07 10:14:09;;;;;;;;;0.00;0.00;;;;;27.43;38.91;101948.72;5033940;28;45321;-72
2023/08/07 10:16:39;;;;;;;;;0.00;0.00;;;;;27.66;39.45;101987.00;5033900;28;45365;-72
2023/08/07 10:19:08;;;;;;;;;0.00;0.00;;;;;27.56;38.94;101969.41;5033040;28;46771;-72
2023/08/07 10:21:39;;;;;;;;;1.00;1.00;;;;;27.63;38.99;101983.69;5016044;28;45412;-72
2023/08/07 10:24:05;;;;;;;;;0.00;0.00;;;;;27.67;39.38;101983.28;5033598;28;45269;-72
2023/08/07 10:26:34;;;;;;;;;0.67;0.67;;;;;27.66;39.36;101976.31;5032971;28;45486;-72
2023/08/07 10:29:03;;;;;;;;;1.00;1.00;;;;;27.67;39.26;101969.91;5033361;28;45458;-72
2023/08/07 10:31:31;;;;;;;;;1.00;1.00;;;;;27.39;39.45;101942.97;5033073;28;45279;-71
2023/08/07 10:33:57;;;;;;;;;1.00;1.00;;;;;27.63;39.71;101973.00;5033502;28;45409;-72
2023/08/07 10:36:22;;;;;;;;;0.67;0.00;;;;;27.44;39.00;101945.06;5033229;28;45548;-72
2023/08/07 10:38:51;;;;;;;;;0.00;0.00;;;;;27.49;39.70;101955.16;5032753;28;59488;-71
2023/08/07 10:41:18;;;;;;;;;0.00;0.00;;;;;27.56;39.74;101968.63;5032913;28;45354;-72
2023/08/07 10:43:45;;;;;;;;;1.00;0.00;;;;;27.61;39.19;101969.66;5033039;28;45375;-72
2023/08/07 10:46:13;;;;;;;;;0.00;0.00;;;;;27.59;39.52;101966.38;5033203;28;45371;-72
2023/08/07 10:48:43;;;;;;;;;1.00;1.00;;;;;27.61;38.99;101958.97;5032732;28;45385;-72
2023/08/07 10:51:12;;;;;;;;;0.00;0.00;;;;;27.58;39.24;101948.69;5033048;28;45302;-71
2023/08/07 10:53:43;;;;;;;;;0.00;0.00;;;;;27.60;39.59;101961.84;5032983;27;45404;-72
2023/08/07 10:56:10;;;;;;;;;0.00;0.00;;;;;27.61;39.90;101963.53;5032478;28;45305;-72
2023/08/07 10:58:38;;;;;;;;;1.00;1.00;;;;;27.57;39.75;101976.44;5032934;28;45487;-72
2023/08/07 11:01:21;;;;;;;;;0.67;0.67;;;;;27.58;39.79;101971.91;5031511;28;45433;-71
2023/08/07 11:03:52;;;;;;;;;0.00;0.00;;;;;27.34;39.24;101934.69;5032979;28;45269;-72
2023/08/07 11:06:22;;;;;;;;;1.00;1.00;;;;;27.35;39.47;101935.53;5032729;28;45555;-72
2023/08/07 11:08:51;;;;;;;;;1.00;1.00;;;;;27.49;39.58;101957.84;5032484;27;46334;-72
2023/08/07 11:11:16;;;;;;;;;1.00;1.00;;;;;27.51;39.88;101956.63;5032203;28;45401;-72
2023/08/07 11:13:41;;;;;;;;;0.00;0.00;;;;;27.52;39.55;101960.97;5033035;28;45290;-72
2023/08/07 11:16:07;;;;;;;;;0.33;0.00;;;;;27.48;39.15;101942.84;5033026;27;45367;-71
2023/08/07 11:18:35;;;;;;;;;0.00;0.00;;;;;27.56;39.29;101965.94;5032416;28;46066;-71
2023/08/07 11:21:01;;;;;;;;;1.67;1.00;;;;;27.55;39.63;101967.78;5032649;28;45358;-72